sensor_id;sensor_type;location;lat;lon;timestamp;pressure;altitude;pressure_sealevel;temperature;humidity
48041;BME280;33815;48.386;11.738;2022-08-21T00:01:22;96607.72;;;14.97;100.00
48041;BME280;33815;48.386;11.738;2022-08-21T00:03:48;96603.75;;;15.01;100.00
48041;BME280;33815;48.386;11.738;2022-08-21T00:06:14;96602.75;;;15.02;100.00
48041;BME280;33815;48.386;11.738;2022-08-21T00:08:40;96609.91;;;15.08;100.00
48041;BME280;33815;48.386;11.738;2022-08-21T00:11:06;96588.78;;;15.02;100.00
48041;BME280;33815;48.386;11.738;2022-08-21T00:13:31;96589.09;;;15.07;100.00
48041;BME280;33815;48.386;11.738;2022-08-21T00:15:57;96584.19;;;15.04;100.00
48041;BME280;33815;48.386;11.738;2022-08-21T00:18:24;96597.16;;;15.05;100.00
48041;BME280;33815;48.386;11.738;2022-08-21T00:20:49;96584.03;;;15.05;100.00
48041;BME280;33815;48.386;11.738;2022-08-21T00:23:15;96579.28;;;15.01;100.00
48041;BME280;33815;48.386;11.738;2022-08-21T00:25:41;96575.22;;;14.98;100.00
48041;BME280;33815;48.386;11.738;2022-08-21T00:28:07;96582.19;;;15.06;100.00
48041;BME280;33815;48.386;11.738;2022-08-21T00:30:33;96569.25;;;15.04;100.00
48041;BME280;33815;48.386;11.738;2022-08-21T00:32:59;96579.28;;;15.01;100.00
48041;BME280;33815;48.386;11.738;2022-08-21T00:35:28;96575.66;;;15.02;100.00
48041;BME280;33815;48.386;11.738;2022-08-21T00:37:54;96576.41;;;14.96;100.00
48041;BME280;33815;48.386;11.738;2022-08-21T00:40:25;96578.28;;;15.02;100.00
48041;BME280;33815;48.386;11.738;2022-08-21T00:42:53;96579.66;;;14.98;100.00
48041;BME280;33815;48.386;11.738;2022-08-21T00:45:19;96566.16;;;14.86;100.00
48041;BME280;33815;48.386;11.738;2022-08-21T00:47:45;96579.09;;;14.87;100.00
48041;BME280;33815;48.386;11.738;2022-08-21T00:50:12;96576.09;;;14.90;100.00
48041;BME280;33815;48.386;11.738;2022-08-21T00:52:37;96563.72;;;14.84;100.00
48041;BME280;33815;48.386;11.738;2022-08-21T00:55:07;96579.81;;;14.81;100.00
48041;BME280;33815;48.386;11.738;2022-08-21T00:57:42;96570.47;;;14.79;100.00
48041;BME280;33815;48.386;11.738;2022-08-21T01:00:14;96570.00;;;14.75;100.00
48041;BME280;33815;48.386;11.738;2022-08-21T01:02:40;96567.25;;;14.68;100.00
48041;BME280;33815;48.386;11.738;2022-08-21T01:05:06;96571.34;;;14.71;100.00
48041;BME280;33815;48.386;11.738;2022-08-21T01:07:31;96571.88;;;14.66;100.00
48041;BME280;33815;48.386;11.738;2022-08-21T01:09:57;96567.81;;;14.64;100.00
48041;BME280;33815;48.386;11.738;2022-08-21T01:12:23;96562.84;;;14.69;100.00
48041;BME280;33815;48.386;11.738;2022-08-21T01:14:48;96564.84;;;14.59;100.00
48041;BME280;33815;48.386;11.738;2022-08-21T01:17:15;96552.16;;;14.47;100.00
48041;BME280;33815;48.386;11.738;2022-08-21T01:19:42;96565.88;;;14.57;100.00
48041;BME280;33815;48.386;11.738;2022-08-21T01:22:08;96551.34;;;14.47;100.00
48041;BME280;33815;48.386;11.738;2022-08-21T01:24:33;96555.69;;;14.54;100.00
48041;BME280;33815;48.386;11.738;2022-08-21T01:26:59;96546.16;;;14.38;100.00
48041;BME280;33815;48.386;11.738;2022-08-21T01:29:49;96565.84;;;14.34;100.00
48041;BME280;33815;48.386;11.738;2022-08-21T01:32:17;96562.47;;;14.26;100.00
48041;BME280;33815;48.386;11.738;2022-08-21T01:34:45;96562.50;;;14.17;100.00
48041;BME280;33815;48.386;11.738;2022-08-21T01:37:12;96566.47;;;14.13;100.00
48041;BME280;33815;48.386;11.738;2022-08-21T01:39:37;96566.16;;;14.08;100.00
48041;BME280;33815;48.386;11.738;2022-08-21T01:42:04;96568.69;;;14.01;100.00
48041;BME280;33815;48.386;11.738;2022-08-21T01:44:30;96564.78;;;13.97;100.00
48041;BME280;33815;48.386;11.738;2022-08-21T01:46:58;96561.97;;;13.99;100.00
48041;BME280;33815;48.386;11.738;2022-08-21T01:49:24;96562.81;;;13.91;100.00
48041;BME280;33815;48.386;11.738;2022-08-21T01:51:49;96565.63;;;13.90;100.00
48041;BME280;33815;48.386;11.738;2022-08-21T01:54:14;96560.72;;;13.86;100.00
48041;BME280;33815;48.386;11.738;2022-08-21T01:56:46;96544.41;;;13.76;100.00
48041;BME280;33815;48.386;11.738;2022-08-21T01:59:12;96565.31;;;13.84;100.00
48041;BME280;33815;48.386;11.738;2022-08-21T02:01:37;96558.78;;;13.80;100.00
48041;BME280;33815;48.386;11.738;2022-08-21T02:04:05;96557.16;;;13.79;100.00
48041;BME280;33815;48.386;11.738;2022-08-21T02:06:31;96546.53;;;13.73;100.00
48041;BME280;33815;48.386;11.738;2022-08-21T02:08:57;96542.16;;;13.65;100.00
48041;BME280;33815;48.386;11.738;2022-08-21T02:11:22;96553.59;;;13.72;100.00
48041;BME280;33815;48.386;11.738;2022-08-21T02:13:48;96558.19;;;13.62;100.00
48041;BME280;33815;48.386;11.738;2022-08-21T02:16:14;96549.72;;;13.60;100.00
48041;BME280;33815;48.386;11.738;2022-08-21T02:18:40;96542.50;;;13.53;100.00
48041;BME280;33815;48.386;11.738;2022-08-21T02:21:06;96540.72;;;13.54;100.00
48041;BME280;33815;48.386;11.738;2022-08-21T02:23:32;96551.66;;;13.58;100.00
48041;BME280;33815;48.386;11.738;2022-08-21T02:25:59;96547.13;;;13.51;100.00
48041;BME280;33815;48.386;11.738;2022-08-21T02:28:25;96542.56;;;13.45;100.00
48041;BME280;33815;48.386;11.738;2022-08-21T02:30:51;96542.56;;;13.45;100.00
48041;BME280;33815;48.386;11.738;2022-08-21T02:33:16;96543.41;;;13.38;100.00
48041;BME280;33815;48.386;11.738;2022-08-21T02:35:43;96543.22;;;13.31;100.00
48041;BME280;33815;48.386;11.738;2022-08-21T02:38:11;96536.50;;;13.28;100.00
48041;BME280;33815;48.386;11.738;2022-08-21T02:40:39;96511.88;;;13.14;100.00
48041;BME280;33815;48.386;11.738;2022-08-21T02:43:06;96539.78;;;13.30;100.00
48041;BME280;33815;48.386;11.738;2022-08-21T02:45:33;96525.59;;;13.25;100.00
48041;BME280;33815;48.386;11.738;2022-08-21T02:48:03;96529.81;;;13.34;100.00
48041;BME280;33815;48.386;11.738;2022-08-21T02:50:32;96534.06;;;13.35;100.00
48041;BME280;33815;48.386;11.738;2022-08-21T02:52:59;96508.28;;;13.07;100.00
48041;BME280;33815;48.386;11.738;2022-08-21T02:55:27;96535.72;;;13.28;100.00
48041;BME280;33815;48.386;11.738;2022-08-21T02:57:54;96541.13;;;13.26;100.00
48041;BME280;33815;48.386;11.738;2022-08-21T03:00:21;96536.72;;;13.18;100.00
48041;BME280;33815;48.386;11.738;2022-08-21T03:02:47;96533.47;;;13.08;100.00
48041;BME280;33815;48.386;11.738;2022-08-21T03:05:13;96540.34;;;13.09;100.00
48041;BME280;33815;48.386;11.738;2022-08-21T03:07:40;96542.28;;;13.07;100.00
48041;BME280;33815;48.386;11.738;2022-08-21T03:10:06;96541.81;;;13.03;100.00
48041;BME280;33815;48.386;11.738;2022-08-21T03:12:31;96540.84;;;13.05;100.00
48041;BME280;33815;48.386;11.738;2022-08-21T03:14:57;96541.00;;;13.03;100.00
48041;BME280;33815;48.386;11.738;2022-08-21T03:17:23;96544.28;;;12.97;100.00
48041;BME280;33815;48.386;11.738;2022-08-21T03:19:49;96536.78;;;12.85;100.00
48041;BME280;33815;48.386;11.738;2022-08-21T03:22:15;96553.63;;;12.91;100.00
48041;BME280;33815;48.386;11.738;2022-08-21T03:24:40;96540.88;;;12.80;100.00
48041;BME280;33815;48.386;11.738;2022-08-21T03:27:05;96536.44;;;12.72;100.00
48041;BME280;33815;48.386;11.738;2022-08-21T03:29:30;96539.06;;;12.72;100.00
48041;BME280;33815;48.386;11.738;2022-08-21T03:31:56;96540.41;;;12.60;100.00
48041;BME280;33815;48.386;11.738;2022-08-21T03:34:21;96530.75;;;12.52;100.00
48041;BME280;33815;48.386;11.738;2022-08-21T03:36:47;96547.59;;;12.58;100.00
48041;BME280;33815;48.386;11.738;2022-08-21T03:39:14;96551.03;;;12.58;100.00
48041;BME280;33815;48.386;11.738;2022-08-21T03:41:39;96511.97;;;12.32;100.00
48041;BME280;33815;48.386;11.738;2022-08-21T03:44:04;96555.25;;;12.51;100.00
48041;BME280;33815;48.386;11.738;2022-08-21T03:46:30;96547.56;;;12.41;100.00
48041;BME280;33815;48.386;11.738;2022-08-21T03:48:55;96556.72;;;12.37;100.00
48041;BME280;33815;48.386;11.738;2022-08-21T03:51:21;96549.84;;;12.28;100.00
48041;BME280;33815;48.386;11.738;2022-08-21T03:53:46;96547.88;;;12.13;100.00
48041;BME280;33815;48.386;11.738;2022-08-21T03:56:11;96558.81;;;12.17;100.00
48041;BME280;33815;48.386;11.738;2022-08-21T03:58:37;96558.47;;;12.12;100.00
48041;BME280;33815;48.386;11.738;2022-08-21T04:01:03;96556.50;;;12.06;100.00
48041;BME280;33815;48.386;11.738;2022-08-21T04:03:29;96557.00;;;12.01;100.00
48041;BME280;33815;48.386;11.738;2022-08-21T04:05:55;96553.22;;;11.95;100.00
48041;BME280;33815;48.386;11.738;2022-08-21T04:08:20;96571.66;;;11.94;100.00
48041;BME280;33815;48.386;11.738;2022-08-21T04:10:47;96573.09;;;11.88;100.00
48041;BME280;33815;48.386;11.738;2022-08-21T04:13:14;96573.53;;;11.83;100.00
48041;BME280;33815;48.386;11.738;2022-08-21T04:15:40;96574.69;;;11.81;100.00
48041;BME280;33815;48.386;11.738;2022-08-21T04:18:06;96568.81;;;11.79;100.00
48041;BME280;33815;48.386;11.738;2022-08-21T04:20:34;96571.59;;;11.77;100.00
48041;BME280;33815;48.386;11.738;2022-08-21T04:22:59;96569.94;;;11.76;100.00
48041;BME280;33815;48.386;11.738;2022-08-21T04:25:24;96553.63;;;11.74;100.00
48041;BME280;33815;48.386;11.738;2022-08-21T04:27:50;96579.13;;;11.89;100.00
48041;BME280;33815;48.386;11.738;2022-08-21T04:30:16;96565.38;;;11.78;100.00
48041;BME280;33815;48.386;11.738;2022-08-21T04:32:49;96591.53;;;11.87;100.00
48041;BME280;33815;48.386;11.738;2022-08-21T04:35:18;96593.31;;;11.86;100.00
48041;BME280;33815;48.386;11.738;2022-08-21T04:37:43;96591.53;;;11.87;100.00
48041;BME280;33815;48.386;11.738;2022-08-21T04:40:11;96585.44;;;11.78;100.00
48041;BME280;33815;48.386;11.738;2022-08-21T04:42:43;96603.91;;;11.85;100.00
48041;BME280;33815;48.386;11.738;2022-08-21T04:45:14;96604.25;;;11.81;100.00
48041;BME280;33815;48.386;11.738;2022-08-21T04:47:40;96607.50;;;11.83;100.00
48041;BME280;33815;48.386;11.738;2022-08-21T04:50:06;96604.72;;;11.85;100.00
48041;BME280;33815;48.386;11.738;2022-08-21T04:52:31;96598.66;;;11.76;100.00
48041;BME280;33815;48.386;11.738;2022-08-21T04:54:56;96603.59;;;11.88;100.00
48041;BME280;33815;48.386;11.738;2022-08-21T04:57:22;96603.44;;;11.89;100.00
48041;BME280;33815;48.386;11.738;2022-08-21T04:59:49;96587.47;;;11.92;100.00
48041;BME280;33815;48.386;11.738;2022-08-21T05:02:17;96594.19;;;11.95;100.00
48041;BME280;33815;48.386;11.738;2022-08-21T05:04:49;96580.81;;;11.98;100.00
48041;BME280;33815;48.386;11.738;2022-08-21T05:07:19;96598.84;;;12.18;100.00
48041;BME280;33815;48.386;11.738;2022-08-21T05:09:46;96595.41;;;12.25;100.00
48041;BME280;33815;48.386;11.738;2022-08-21T05:12:11;96606.03;;;12.24;100.00
48041;BME280;33815;48.386;11.738;2022-08-21T05:14:37;96593.25;;;12.12;100.00
48041;BME280;33815;48.386;11.738;2022-08-21T05:17:02;96601.94;;;12.21;100.00
48041;BME280;33815;48.386;11.738;2022-08-21T05:19:28;96606.19;;;12.22;100.00
48041;BME280;33815;48.386;11.738;2022-08-21T05:21:53;96601.16;;;12.29;100.00
48041;BME280;33815;48.386;11.738;2022-08-21T05:24:19;96606.22;;;12.30;100.00
48041;BME280;33815;48.386;11.738;2022-08-21T05:26:45;96611.28;;;12.40;100.00
48041;BME280;33815;48.386;11.738;2022-08-21T05:29:11;96608.19;;;12.45;100.00
48041;BME280;33815;48.386;11.738;2022-08-21T05:31:37;96607.38;;;12.44;100.00
48041;BME280;33815;48.386;11.738;2022-08-21T05:34:03;96594.31;;;12.44;100.00
48041;BME280;33815;48.386;11.738;2022-08-21T05:36:28;96605.25;;;12.56;100.00
48041;BME280;33815;48.386;11.738;2022-08-21T05:38:54;96605.44;;;12.71;100.00
48041;BME280;33815;48.386;11.738;2022-08-21T05:41:19;96614.28;;;12.78;100.00
48041;BME280;33815;48.386;11.738;2022-08-21T05:43:44;96597.59;;;12.71;100.00
48041;BME280;33815;48.386;11.738;2022-08-21T05:46:09;96622.44;;;12.92;100.00
48041;BME280;33815;48.386;11.738;2022-08-21T05:48:35;96610.03;;;12.85;100.00
48041;BME280;33815;48.386;11.738;2022-08-21T05:51:06;96613.94;;;12.98;100.00
48041;BME280;33815;48.386;11.738;2022-08-21T05:53:32;96612.63;;;13.02;100.00
48041;BME280;33815;48.386;11.738;2022-08-21T05:55:57;96623.75;;;13.12;100.00
48041;BME280;33815;48.386;11.738;2022-08-21T05:58:23;96623.72;;;13.29;100.00
48041;BME280;33815;48.386;11.738;2022-08-21T06:00:49;96618.50;;;13.37;100.00
48041;BME280;33815;48.386;11.738;2022-08-21T06:03:17;96622.91;;;13.45;100.00
48041;BME280;33815;48.386;11.738;2022-08-21T06:05:43;96622.09;;;13.44;100.00
48041;BME280;33815;48.386;11.738;2022-08-21T06:08:09;96622.41;;;13.49;100.00
48041;BME280;33815;48.386;11.738;2022-08-21T06:10:34;96610.13;;;13.50;100.00
48041;BME280;33815;48.386;11.738;2022-08-21T06:12:59;96612.91;;;13.57;100.00
48041;BME280;33815;48.386;11.738;2022-08-21T06:15:25;96614.31;;;13.67;100.00
48041;BME280;33815;48.386;11.738;2022-08-21T06:17:52;96618.59;;;13.68;100.00
48041;BME280;33815;48.386;11.738;2022-08-21T06:20:18;96617.75;;;13.76;100.00
48041;BME280;33815;48.386;11.738;2022-08-21T06:22:43;96615.91;;;13.85;100.00
48041;BME280;33815;48.386;11.738;2022-08-21T06:25:08;96618.00;;;13.90;100.00
48041;BME280;33815;48.386;11.738;2022-08-21T06:27:34;96623.22;;;13.98;100.00
48041;BME280;33815;48.386;11.738;2022-08-21T06:29:59;96615.50;;;14.04;100.00
48041;BME280;33815;48.386;11.738;2022-08-21T06:32:24;96623.91;;;14.23;100.00
48041;BME280;33815;48.386;11.738;2022-08-21T06:34:50;96630.31;;;14.20;100.00
48041;BME280;33815;48.386;11.738;2022-08-21T06:37:16;96627.66;;;14.29;100.00
48041;BME280;33815;48.386;11.738;2022-08-21T06:39:41;96622.72;;;14.34;100.00
48041;BME280;33815;48.386;11.738;2022-08-21T06:42:13;96630.25;;;14.37;100.00
48041;BME280;33815;48.386;11.738;2022-08-21T06:44:38;96612.72;;;14.29;100.00
48041;BME280;33815;48.386;11.738;2022-08-21T06:47:03;96617.44;;;14.42;100.00
48041;BME280;33815;48.386;11.738;2022-08-21T06:49:29;96621.63;;;14.51;100.00
48041;BME280;33815;48.386;11.738;2022-08-21T06:51:54;96613.69;;;14.68;100.00
48041;BME280;33815;48.386;11.738;2022-08-21T06:54:19;96605.19;;;14.66;100.00
48041;BME280;33815;48.386;11.738;2022-08-21T06:56:44;96605.28;;;14.72;100.00
48041;BME280;33815;48.386;11.738;2022-08-21T06:59:10;96609.66;;;14.80;100.00
48041;BME280;33815;48.386;11.738;2022-08-21T07:01:35;96611.75;;;14.85;100.00
48041;BME280;33815;48.386;11.738;2022-08-21T07:04:01;96604.91;;;14.99;100.00
48041;BME280;33815;48.386;11.738;2022-08-21T07:06:26;96605.53;;;15.01;100.00
48041;BME280;33815;48.386;11.738;2022-08-21T07:08:52;96603.31;;;15.13;100.00
48041;BME280;33815;48.386;11.738;2022-08-21T07:11:19;96600.53;;;15.29;100.00
48041;BME280;33815;48.386;11.738;2022-08-21T07:13:45;96602.00;;;15.32;100.00
48041;BME280;33815;48.386;11.738;2022-08-21T07:16:11;96589.75;;;15.24;100.00
48041;BME280;33815;48.386;11.738;2022-08-21T07:18:36;96604.72;;;15.53;100.00
48041;BME280;33815;48.386;11.738;2022-08-21T07:21:03;96601.53;;;15.58;100.00
48041;BME280;33815;48.386;11.738;2022-08-21T07:23:33;96596.94;;;15.60;100.00
48041;BME280;33815;48.386;11.738;2022-08-21T07:25:59;96586.84;;;15.64;100.00
48041;BME280;33815;48.386;11.738;2022-08-21T07:28:26;96597.84;;;15.82;100.00
48041;BME280;33815;48.386;11.738;2022-08-21T07:30:53;96587.97;;;15.99;100.00
48041;BME280;33815;48.386;11.738;2022-08-21T07:33:19;96588.09;;;16.13;100.00
48041;BME280;33815;48.386;11.738;2022-08-21T07:35:45;96595.50;;;16.24;100.00
48041;BME280;33815;48.386;11.738;2022-08-21T07:38:10;96600.38;;;16.27;100.00
48041;BME280;33815;48.386;11.738;2022-08-21T07:40:36;96598.09;;;16.39;100.00
48041;BME280;33815;48.386;11.738;2022-08-21T07:43:01;96592.94;;;16.52;100.00
48041;BME280;33815;48.386;11.738;2022-08-21T07:45:27;96588.94;;;16.56;100.00
48041;BME280;33815;48.386;11.738;2022-08-21T07:47:52;96602.44;;;16.68;100.00
48041;BME280;33815;48.386;11.738;2022-08-21T07:50:18;96593.34;;;16.71;100.00
48041;BME280;33815;48.386;11.738;2022-08-21T07:52:45;96586.97;;;17.02;100.00
48041;BME280;33815;48.386;11.738;2022-08-21T07:55:14;96596.84;;;17.21;100.00
48041;BME280;33815;48.386;11.738;2022-08-21T07:57:40;96592.28;;;17.78;100.00
48041;BME280;33815;48.386;11.738;2022-08-21T08:00:08;96591.94;;;18.50;100.00
48041;BME280;33815;48.386;11.738;2022-08-21T08:02:34;96586.56;;;18.98;100.00
48041;BME280;33815;48.386;11.738;2022-08-21T08:05:01;96587.94;;;18.67;100.00
48041;BME280;33815;48.386;11.738;2022-08-21T08:07:27;96579.19;;;18.74;100.00
48041;BME280;33815;48.386;11.738;2022-08-21T08:09:52;96584.28;;;18.62;100.00
48041;BME280;33815;48.386;11.738;2022-08-21T08:12:18;96582.03;;;18.65;100.00
48041;BME280;33815;48.386;11.738;2022-08-21T08:14:43;96593.78;;;18.49;100.00
48041;BME280;33815;48.386;11.738;2022-08-21T08:17:09;96583.78;;;18.31;100.00
48041;BME280;33815;48.386;11.738;2022-08-21T08:19:34;96590.94;;;18.38;100.00
48041;BME280;33815;48.386;11.738;2022-08-21T08:21:59;96597.03;;;18.45;100.00
48041;BME280;33815;48.386;11.738;2022-08-21T08:24:25;96586.88;;;18.55;100.00
48041;BME280;33815;48.386;11.738;2022-08-21T08:26:50;96594.25;;;18.93;100.00
48041;BME280;33815;48.386;11.738;2022-08-21T08:29:15;96595.28;;;19.06;100.00
48041;BME280;33815;48.386;11.738;2022-08-21T08:31:41;96586.13;;;19.22;100.00
48041;BME280;33815;48.386;11.738;2022-08-21T08:34:06;96581.19;;;19.52;100.00
48041;BME280;33815;48.386;11.738;2022-08-21T08:36:35;96576.72;;;19.59;100.00
48041;BME280;33815;48.386;11.738;2022-08-21T08:39:03;96563.69;;;19.64;100.00
48041;BME280;33815;48.386;11.738;2022-08-21T08:41:28;96580.50;;;19.90;100.00
48041;BME280;33815;48.386;11.738;2022-08-21T08:43:58;96573.41;;;19.91;100.00
48041;BME280;33815;48.386;11.738;2022-08-21T08:46:35;96576.50;;;19.81;100.00
48041;BME280;33815;48.386;11.738;2022-08-21T08:49:09;96567.19;;;19.58;100.00
48041;BME280;33815;48.386;11.738;2022-08-21T08:52:07;96584.25;;;20.21;100.00
48041;BME280;33815;48.386;11.738;2022-08-21T08:57:23;96582.34;;;19.96;100.00
48041;BME280;33815;48.386;11.738;2022-08-21T08:59:52;96569.41;;;20.20;100.00
48041;BME280;33815;48.386;11.738;2022-08-21T09:02:19;96579.47;;;20.36;100.00
48041;BME280;33815;48.386;11.738;2022-08-21T09:04:46;96574.41;;;20.67;100.00
48041;BME280;33815;48.386;11.738;2022-08-21T09:10:29;96571.75;;;20.67;100.00
48041;BME280;33815;48.386;11.738;2022-08-21T09:16:17;96578.25;;;21.03;100.00
48041;BME280;33815;48.386;11.738;2022-08-21T09:21:38;96579.59;;;20.55;100.00
48041;BME280;33815;48.386;11.738;2022-08-21T09:27:12;96565.84;;;21.22;100.00
48041;BME280;33815;48.386;11.738;2022-08-21T09:29:41;96577.53;;;21.14;94.24
48041;BME280;33815;48.386;11.738;2022-08-21T09:32:16;96576.88;;;20.62;99.48
48041;BME280;33815;48.386;11.738;2022-08-21T09:35:11;96575.03;;;20.69;100.00
48041;BME280;33815;48.386;11.738;2022-08-21T09:37:54;96571.53;;;21.00;99.41
48041;BME280;33815;48.386;11.738;2022-08-21T09:43:17;96576.53;;;21.34;94.79
48041;BME280;33815;48.386;11.738;2022-08-21T09:45:43;96582.13;;;21.26;89.53
48041;BME280;33815;48.386;11.738;2022-08-21T09:48:24;96572.34;;;21.45;91.19
48041;BME280;33815;48.386;11.738;2022-08-21T09:50:51;96573.44;;;21.37;90.83
48041;BME280;33815;48.386;11.738;2022-08-21T09:53:29;96553.50;;;21.34;94.24
48041;BME280;33815;48.386;11.738;2022-08-21T09:56:00;96574.91;;;21.58;92.26
48041;BME280;33815;48.386;11.738;2022-08-21T09:58:47;96568.84;;;21.51;86.53
48041;BME280;33815;48.386;11.738;2022-08-21T10:01:31;96562.25;;;21.79;88.39
48041;BME280;33815;48.386;11.738;2022-08-21T10:04:05;96564.97;;;22.39;89.61
48041;BME280;33815;48.386;11.738;2022-08-21T10:06:32;96567.41;;;23.07;79.98
48041;BME280;33815;48.386;11.738;2022-08-21T10:09:19;96550.19;;;22.98;83.63
48041;BME280;33815;48.386;11.738;2022-08-21T10:12:21;96570.06;;;22.95;81.26
48041;BME280;33815;48.386;11.738;2022-08-21T10:15:02;96561.91;;;23.20;82.02
48041;BME280;33815;48.386;11.738;2022-08-21T10:18:06;96562.84;;;22.60;82.06
48041;BME280;33815;48.386;11.738;2022-08-21T10:20:43;96534.50;;;21.93;82.34
48041;BME280;33815;48.386;11.738;2022-08-21T10:23:29;96547.69;;;21.44;85.46
48041;BME280;33815;48.386;11.738;2022-08-21T10:26:08;96552.28;;;21.12;94.29
48041;BME280;33815;48.386;11.738;2022-08-21T10:29:03;96553.19;;;21.24;85.68
48041;BME280;33815;48.386;11.738;2022-08-21T10:34:30;96555.16;;;22.94;86.36
48041;BME280;33815;48.386;11.738;2022-08-21T10:45:57;96546.50;;;22.26;80.22
48041;BME280;33815;48.386;11.738;2022-08-21T10:48:33;96545.13;;;21.93;82.75
48041;BME280;33815;48.386;11.738;2022-08-21T10:51:09;96546.94;;;21.37;85.36
48041;BME280;33815;48.386;11.738;2022-08-21T10:53:50;96547.56;;;20.88;88.12
48041;BME280;33815;48.386;11.738;2022-08-21T10:56:34;96552.06;;;20.88;91.80
48041;BME280;33815;48.386;11.738;2022-08-21T10:59:43;96551.63;;;21.79;89.08
48041;BME280;33815;48.386;11.738;2022-08-21T11:02:19;96539.09;;;22.47;89.95
48041;BME280;33815;48.386;11.738;2022-08-21T11:07:38;96544.22;;;23.26;81.78
48041;BME280;33815;48.386;11.738;2022-08-21T11:10:28;96547.84;;;22.78;77.20
48041;BME280;33815;48.386;11.738;2022-08-21T11:13:01;96545.34;;;22.52;77.48
48041;BME280;33815;48.386;11.738;2022-08-21T11:18:34;96522.06;;;23.61;83.09
48041;BME280;33815;48.386;11.738;2022-08-21T11:21:32;96523.28;;;23.94;69.31
48041;BME280;33815;48.386;11.738;2022-08-21T11:29:13;96508.97;;;24.41;64.91
48041;BME280;33815;48.386;11.738;2022-08-21T11:34:31;96504.44;;;25.09;64.38
48041;BME280;33815;48.386;11.738;2022-08-21T11:37:15;96507.63;;;25.45;58.88
48041;BME280;33815;48.386;11.738;2022-08-21T11:45:26;96493.13;;;25.36;65.18
48041;BME280;33815;48.386;11.738;2022-08-21T11:50:56;96508.25;;;24.62;64.36
48041;BME280;33815;48.386;11.738;2022-08-21T11:53:34;96474.22;;;23.90;68.12
48041;BME280;33815;48.386;11.738;2022-08-21T11:56:15;96488.47;;;23.72;72.10
48041;BME280;33815;48.386;11.738;2022-08-21T11:58:49;96495.72;;;24.00;70.24
48041;BME280;33815;48.386;11.738;2022-08-21T12:01:32;96491.13;;;24.12;66.67
48041;BME280;33815;48.386;11.738;2022-08-21T12:04:04;96493.88;;;24.46;62.61
48041;BME280;33815;48.386;11.738;2022-08-21T12:06:33;96500.19;;;24.74;62.72
48041;BME280;33815;48.386;11.738;2022-08-21T12:09:05;96496.50;;;25.14;61.05
48041;BME280;33815;48.386;11.738;2022-08-21T12:11:32;96491.53;;;25.01;59.89
48041;BME280;33815;48.386;11.738;2022-08-21T12:16:40;96486.03;;;26.19;60.72
48041;BME280;33815;48.386;11.738;2022-08-21T12:19:34;96483.22;;;26.30;58.22
48041;BME280;33815;48.386;11.738;2022-08-21T12:22:10;96476.53;;;26.60;52.49
48041;BME280;33815;48.386;11.738;2022-08-21T12:24:45;96482.81;;;26.76;54.97
48041;BME280;33815;48.386;11.738;2022-08-21T12:27:22;96478.38;;;26.92;54.59
48041;BME280;33815;48.386;11.738;2022-08-21T12:29:58;96470.53;;;26.15;52.86
48041;BME280;33815;48.386;11.738;2022-08-21T12:32:45;96474.84;;;25.28;55.14
48041;BME280;33815;48.386;11.738;2022-08-21T12:35:15;96472.25;;;25.55;55.67
48041;BME280;33815;48.386;11.738;2022-08-21T12:37:57;96453.38;;;25.62;53.76
48041;BME280;33815;48.386;11.738;2022-08-21T12:40:33;96465.81;;;25.51;53.92
48041;BME280;33815;48.386;11.738;2022-08-21T12:43:03;96463.72;;;25.80;57.04
48041;BME280;33815;48.386;11.738;2022-08-21T12:45:36;96464.88;;;26.39;56.88
48041;BME280;33815;48.386;11.738;2022-08-21T12:48:10;96461.19;;;26.78;51.23
48041;BME280;33815;48.386;11.738;2022-08-21T12:50:45;96449.94;;;27.18;52.49
48041;BME280;33815;48.386;11.738;2022-08-21T12:53:15;96458.56;;;26.88;53.59
48041;BME280;33815;48.386;11.738;2022-08-21T12:55:47;96449.66;;;26.12;53.79
48041;BME280;33815;48.386;11.738;2022-08-21T12:58:20;96451.59;;;25.45;52.88
48041;BME280;33815;48.386;11.738;2022-08-21T13:00:53;96435.91;;;25.49;52.55
48041;BME280;33815;48.386;11.738;2022-08-21T13:03:21;96437.31;;;26.06;52.92
48041;BME280;33815;48.386;11.738;2022-08-21T13:05:47;96433.06;;;26.70;48.69
48041;BME280;33815;48.386;11.738;2022-08-21T13:08:13;96440.19;;;26.64;48.09
48041;BME280;33815;48.386;11.738;2022-08-21T13:10:40;96423.66;;;26.67;47.77
48041;BME280;33815;48.386;11.738;2022-08-21T13:13:10;96433.75;;;26.98;51.15
48041;BME280;33815;48.386;11.738;2022-08-21T13:15:40;96419.28;;;26.94;46.57
48041;BME280;33815;48.386;11.738;2022-08-21T13:18:06;96398.75;;;27.68;46.92
48041;BME280;33815;48.386;11.738;2022-08-21T13:20:35;96432.59;;;28.00;49.46
48041;BME280;33815;48.386;11.738;2022-08-21T13:23:02;96416.50;;;28.62;43.04
48041;BME280;33815;48.386;11.738;2022-08-21T13:25:29;96402.28;;;28.46;43.98
48041;BME280;33815;48.386;11.738;2022-08-21T13:28:03;96413.53;;;28.84;43.35
48041;BME280;33815;48.386;11.738;2022-08-21T13:30:29;96414.31;;;29.00;44.18
48041;BME280;33815;48.386;11.738;2022-08-21T13:32:58;96402.47;;;29.06;43.09
48041;BME280;33815;48.386;11.738;2022-08-21T13:35:28;96398.56;;;28.47;43.77
48041;BME280;33815;48.386;11.738;2022-08-21T13:37:55;96399.09;;;28.23;43.13
48041;BME280;33815;48.386;11.738;2022-08-21T13:40:29;96403.38;;;28.09;42.25
48041;BME280;33815;48.386;11.738;2022-08-21T13:42:54;96406.59;;;28.06;46.68
48041;BME280;33815;48.386;11.738;2022-08-21T13:45:29;96397.75;;;28.26;42.17
48041;BME280;33815;48.386;11.738;2022-08-21T13:47:56;96395.63;;;28.38;43.60